sensor_id;sensor_type;location;lat;lon;timestamp;temperature;humidity
52555;DHT22;38455;52.710;6.502;2022-09-27T00:01:37;10.80;99.90
52555;DHT22;38455;52.710;6.502;2022-09-27T00:04:02;10.80;99.90
52555;DHT22;38455;52.710;6.502;2022-09-27T00:06:30;10.70;99.90
52555;DHT22;38455;52.710;6.502;2022-09-27T00:08:57;10.60;99.90
52555;DHT22;38455;52.710;6.502;2022-09-27T00:11:37;10.60;99.90
52555;DHT22;38455;52.710;6.502;2022-09-27T00:14:05;10.40;99.90
52555;DHT22;38455;52.710;6.502;2022-09-27T00:16:36;10.40;99.90
52555;DHT22;38455;52.710;6.502;2022-09-27T00:19:05;10.20;99.90
52555;DHT22;38455;52.710;6.502;2022-09-27T00:21:30;10.30;99.90
52555;DHT22;38455;52.710;6.502;2022-09-27T00:23:57;10.20;99.90
52555;DHT22;38455;52.710;6.502;2022-09-27T00:26:24;10.10;99.90
52555;DHT22;38455;52.710;6.502;2022-09-27T00:28:49;10.10;99.90
52555;DHT22;38455;52.710;6.502;2022-09-27T00:31:23;10.00;99.90
52555;DHT22;38455;52.710;6.502;2022-09-27T00:33:51;9.90;99.90
52555;DHT22;38455;52.710;6.502;2022-09-27T00:36:18;9.80;99.90
52555;DHT22;38455;52.710;6.502;2022-09-27T00:38:45;9.80;99.90
52555;DHT22;38455;52.710;6.502;2022-09-27T00:41:17;9.80;99.90
52555;DHT22;38455;52.710;6.502;2022-09-27T00:43:54;9.80;99.90
52555;DHT22;38455;52.710;6.502;2022-09-27T00:46:45;9.70;99.90
52555;DHT22;38455;52.710;6.502;2022-09-27T00:52:07;9.70;99.90
52555;DHT22;38455;52.710;6.502;2022-09-27T00:54:34;9.80;99.90
52555;DHT22;38455;52.710;6.502;2022-09-27T00:57:02;9.80;99.90
52555;DHT22;38455;52.710;6.502;2022-09-27T00:59:43;9.90;99.90
52555;DHT22;38455;52.710;6.502;2022-09-27T01:02:10;9.90;99.90
52555;DHT22;38455;52.710;6.502;2022-09-27T01:04:38;10.00;99.90
52555;DHT22;38455;52.710;6.502;2022-09-27T01:07:04;10.00;99.90
52555;DHT22;38455;52.710;6.502;2022-09-27T01:09:30;10.00;99.90
52555;DHT22;38455;52.710;6.502;2022-09-27T01:14:51;10.10;99.90
52555;DHT22;38455;52.710;6.502;2022-09-27T01:17:32;10.10;99.90
52555;DHT22;38455;52.710;6.502;2022-09-27T01:31:33;10.10;99.90
52555;DHT22;38455;52.710;6.502;2022-09-27T01:37:07;10.10;99.90
52555;DHT22;38455;52.710;6.502;2022-09-27T01:42:45;10.10;99.90
52555;DHT22;38455;52.710;6.502;2022-09-27T01:45:13;10.00;99.90
52555;DHT22;38455;52.710;6.502;2022-09-27T01:47:50;10.00;99.90
52555;DHT22;38455;52.710;6.502;2022-09-27T01:50:34;10.00;99.90
52555;DHT22;38455;52.710;6.502;2022-09-27T01:53:04;10.00;99.90
52555;DHT22;38455;52.710;6.502;2022-09-27T01:55:33;9.90;99.90
52555;DHT22;38455;52.710;6.502;2022-09-27T01:58:25;9.90;99.90
52555;DHT22;38455;52.710;6.502;2022-09-27T02:00:53;9.90;99.90
52555;DHT22;38455;52.710;6.502;2022-09-27T02:03:23;9.80;99.90
52555;DHT22;38455;52.710;6.502;2022-09-27T02:05:58;9.70;99.90
52555;DHT22;38455;52.710;6.502;2022-09-27T02:08:45;9.70;99.90
52555;DHT22;38455;52.710;6.502;2022-09-27T02:11:14;9.70;99.90
52555;DHT22;38455;52.710;6.502;2022-09-27T02:13:53;9.70;99.90
52555;DHT22;38455;52.710;6.502;2022-09-27T02:21:58;9.60;99.90
52555;DHT22;38455;52.710;6.502;2022-09-27T02:24:37;9.60;99.90
52555;DHT22;38455;52.710;6.502;2022-09-27T02:27:16;9.60;99.90
52555;DHT22;38455;52.710;6.502;2022-09-27T02:29:48;9.60;99.90
52555;DHT22;38455;52.710;6.502;2022-09-27T02:32:17;9.60;99.90
52555;DHT22;38455;52.710;6.502;2022-09-27T02:34:44;9.60;99.90
52555;DHT22;38455;52.710;6.502;2022-09-27T02:37:10;9.60;99.90
52555;DHT22;38455;52.710;6.502;2022-09-27T02:39:36;9.60;99.90
52555;DHT22;38455;52.710;6.502;2022-09-27T02:42:03;9.60;99.90
52555;DHT22;38455;52.710;6.502;2022-09-27T02:44:29;9.70;99.90
52555;DHT22;38455;52.710;6.502;2022-09-27T02:55:18;9.60;99.90
52555;DHT22;38455;52.710;6.502;2022-09-27T02:58:10;9.60;99.90
52555;DHT22;38455;52.710;6.502;2022-09-27T03:03:32;9.50;99.90
52555;DHT22;38455;52.710;6.502;2022-09-27T03:06:06;9.50;99.90
52555;DHT22;38455;52.710;6.502;2022-09-27T03:08:32;9.50;99.90
52555;DHT22;38455;52.710;6.502;2022-09-27T03:10:58;9.40;99.90
52555;DHT22;38455;52.710;6.502;2022-09-27T03:13:24;9.40;99.90
52555;DHT22;38455;52.710;6.502;2022-09-27T03:15:50;9.40;99.90
52555;DHT22;38455;52.710;6.502;2022-09-27T03:18:15;9.40;99.90
52555;DHT22;38455;52.710;6.502;2022-09-27T03:20:41;9.30;99.90
52555;DHT22;38455;52.710;6.502;2022-09-27T03:23:07;9.20;99.90
52555;DHT22;38455;52.710;6.502;2022-09-27T03:25:32;9.30;99.90
52555;DHT22;38455;52.710;6.502;2022-09-27T03:27:58;9.20;99.90
52555;DHT22;38455;52.710;6.502;2022-09-27T03:30:24;9.20;99.90
52555;DHT22;38455;52.710;6.502;2022-09-27T03:32:49;9.20;99.90
52555;DHT22;38455;52.710;6.502;2022-09-27T03:35:15;9.20;99.90
52555;DHT22;38455;52.710;6.502;2022-09-27T03:37:40;9.20;99.90
52555;DHT22;38455;52.710;6.502;2022-09-27T03:40:07;9.20;99.90
52555;DHT22;38455;52.710;6.502;2022-09-27T03:42:33;9.20;99.90
52555;DHT22;38455;52.710;6.502;2022-09-27T03:44:59;9.20;99.90
52555;DHT22;38455;52.710;6.502;2022-09-27T03:47:25;9.20;99.90
52555;DHT22;38455;52.710;6.502;2022-09-27T03:49:50;9.20;99.90
52555;DHT22;38455;52.710;6.502;2022-09-27T03:52:16;9.10;99.90
52555;DHT22;38455;52.710;6.502;2022-09-27T03:54:44;9.20;99.90
52555;DHT22;38455;52.710;6.502;2022-09-27T03:57:10;9.00;99.90
52555;DHT22;38455;52.710;6.502;2022-09-27T03:59:35;9.00;99.90
52555;DHT22;38455;52.710;6.502;2022-09-27T04:02:01;9.10;99.90
52555;DHT22;38455;52.710;6.502;2022-09-27T04:04:27;9.10;99.90
52555;DHT22;38455;52.710;6.502;2022-09-27T04:06:52;9.00;99.90
52555;DHT22;38455;52.710;6.502;2022-09-27T04:09:18;9.10;99.90
52555;DHT22;38455;52.710;6.502;2022-09-27T04:11:43;9.00;99.90
52555;DHT22;38455;52.710;6.502;2022-09-27T04:14:09;9.00;99.90
52555;DHT22;38455;52.710;6.502;2022-09-27T04:16:37;9.00;99.90
52555;DHT22;38455;52.710;6.502;2022-09-27T04:19:05;9.00;99.90
52555;DHT22;38455;52.710;6.502;2022-09-27T04:21:31;9.00;99.90
52555;DHT22;38455;52.710;6.502;2022-09-27T04:23:56;9.00;99.90
52555;DHT22;38455;52.710;6.502;2022-09-27T04:26:22;9.00;99.90
52555;DHT22;38455;52.710;6.502;2022-09-27T04:28:48;9.00;99.90
52555;DHT22;38455;52.710;6.502;2022-09-27T04:31:15;9.00;99.90
52555;DHT22;38455;52.710;6.502;2022-09-27T04:33:41;9.00;99.90
52555;DHT22;38455;52.710;6.502;2022-09-27T04:36:08;9.00;99.90
52555;DHT22;38455;52.710;6.502;2022-09-27T04:38:57;9.00;99.90
52555;DHT22;38455;52.710;6.502;2022-09-27T04:41:24;9.00;99.90
52555;DHT22;38455;52.710;6.502;2022-09-27T04:43:50;9.00;99.90
52555;DHT22;38455;52.710;6.502;2022-09-27T04:46:17;9.00;99.90
52555;DHT22;38455;52.710;6.502;2022-09-27T04:48:42;8.90;99.90
52555;DHT22;38455;52.710;6.502;2022-09-27T04:51:09;8.90;99.90
52555;DHT22;38455;52.710;6.502;2022-09-27T04:53:35;8.80;99.90
52555;DHT22;38455;52.710;6.502;2022-09-27T04:56:00;8.80;99.90
52555;DHT22;38455;52.710;6.502;2022-09-27T04:58:28;8.70;99.90
52555;DHT22;38455;52.710;6.502;2022-09-27T05:00:54;8.60;99.90
52555;DHT22;38455;52.710;6.502;2022-09-27T05:03:23;8.70;99.90
52555;DHT22;38455;52.710;6.502;2022-09-27T05:05:49;8.60;99.90
52555;DHT22;38455;52.710;6.502;2022-09-27T05:08:14;8.50;99.90
52555;DHT22;38455;52.710;6.502;2022-09-27T05:10:40;8.50;99.90
52555;DHT22;38455;52.710;6.502;2022-09-27T05:13:05;8.40;99.90
52555;DHT22;38455;52.710;6.502;2022-09-27T05:15:32;8.40;99.90
52555;DHT22;38455;52.710;6.502;2022-09-27T05:17:57;8.30;99.90
52555;DHT22;38455;52.710;6.502;2022-09-27T05:20:23;8.40;99.90
52555;DHT22;38455;52.710;6.502;2022-09-27T05:22:52;8.40;99.90
52555;DHT22;38455;52.710;6.502;2022-09-27T05:25:18;8.30;99.90
52555;DHT22;38455;52.710;6.502;2022-09-27T05:27:44;8.30;99.90
52555;DHT22;38455;52.710;6.502;2022-09-27T05:30:10;8.30;99.90
52555;DHT22;38455;52.710;6.502;2022-09-27T05:32:39;8.30;99.90
52555;DHT22;38455;52.710;6.502;2022-09-27T05:35:08;8.30;99.90
52555;DHT22;38455;52.710;6.502;2022-09-27T05:37:34;8.30;99.90
52555;DHT22;38455;52.710;6.502;2022-09-27T05:39:59;8.30;99.90
52555;DHT22;38455;52.710;6.502;2022-09-27T05:42:25;8.20;99.90
52555;DHT22;38455;52.710;6.502;2022-09-27T05:44:51;8.30;99.90
52555;DHT22;38455;52.710;6.502;2022-09-27T05:47:16;8.20;99.90
52555;DHT22;38455;52.710;6.502;2022-09-27T05:49:42;8.20;99.90
52555;DHT22;38455;52.710;6.502;2022-09-27T05:52:08;8.10;99.90
52555;DHT22;38455;52.710;6.502;2022-09-27T05:54:33;8.20;99.90
52555;DHT22;38455;52.710;6.502;2022-09-27T05:56:59;8.20;99.90
52555;DHT22;38455;52.710;6.502;2022-09-27T05:59:26;8.20;99.90
52555;DHT22;38455;52.710;6.502;2022-09-27T06:01:52;8.20;99.90
52555;DHT22;38455;52.710;6.502;2022-09-27T06:04:18;8.20;99.90
52555;DHT22;38455;52.710;6.502;2022-09-27T06:06:44;8.20;99.90
52555;DHT22;38455;52.710;6.502;2022-09-27T06:09:11;8.20;99.90
52555;DHT22;38455;52.710;6.502;2022-09-27T06:11:36;8.20;99.90
52555;DHT22;38455;52.710;6.502;2022-09-27T06:14:02;8.20;99.90
52555;DHT22;38455;52.710;6.502;2022-09-27T06:16:29;8.20;99.90
52555;DHT22;38455;52.710;6.502;2022-09-27T06:18:54;8.30;99.90
52555;DHT22;38455;52.710;6.502;2022-09-27T06:21:20;8.40;99.90
52555;DHT22;38455;52.710;6.502;2022-09-27T06:23:47;8.50;99.90
52555;DHT22;38455;52.710;6.502;2022-09-27T06:26:13;8.50;99.90
52555;DHT22;38455;52.710;6.502;2022-09-27T06:28:38;8.70;99.90
52555;DHT22;38455;52.710;6.502;2022-09-27T06:31:05;8.90;99.90
52555;DHT22;38455;52.710;6.502;2022-09-27T06:33:33;9.00;99.90
52555;DHT22;38455;52.710;6.502;2022-09-27T06:36:03;9.10;99.90
52555;DHT22;38455;52.710;6.502;2022-09-27T06:38:29;9.10;99.90
52555;DHT22;38455;52.710;6.502;2022-09-27T06:40:55;9.10;99.90
52555;DHT22;38455;52.710;6.502;2022-09-27T06:43:25;9.30;99.90
52555;DHT22;38455;52.710;6.502;2022-09-27T06:45:50;9.30;99.90
52555;DHT22;38455;52.710;6.502;2022-09-27T06:48:16;9.40;99.90
52555;DHT22;38455;52.710;6.502;2022-09-27T06:50:43;9.60;99.90
52555;DHT22;38455;52.710;6.502;2022-09-27T06:53:11;9.80;99.90
52555;DHT22;38455;52.710;6.502;2022-09-27T06:55:37;10.20;99.90
52555;DHT22;38455;52.710;6.502;2022-09-27T06:58:04;10.40;99.90
52555;DHT22;38455;52.710;6.502;2022-09-27T07:00:52;10.50;99.90
52555;DHT22;38455;52.710;6.502;2022-09-27T07:03:22;10.50;99.90
52555;DHT22;38455;52.710;6.502;2022-09-27T07:05:58;10.50;99.90
52555;DHT22;38455;52.710;6.502;2022-09-27T07:08:24;10.40;99.90
52555;DHT22;38455;52.710;6.502;2022-09-27T07:11:03;10.40;99.90
52555;DHT22;38455;52.710;6.502;2022-09-27T07:13:29;10.40;99.90
52555;DHT22;38455;52.710;6.502;2022-09-27T07:15:57;10.40;99.90
52555;DHT22;38455;52.710;6.502;2022-09-27T07:18:23;10.60;99.90
52555;DHT22;38455;52.710;6.502;2022-09-27T07:20:49;10.80;99.90
52555;DHT22;38455;52.710;6.502;2022-09-27T07:23:15;11.10;99.90
52555;DHT22;38455;52.710;6.502;2022-09-27T07:25:41;12.40;99.90
52555;DHT22;38455;52.710;6.502;2022-09-27T07:28:16;13.90;99.90
52555;DHT22;38455;52.710;6.502;2022-09-27T07:30:42;15.10;99.90
52555;DHT22;38455;52.710;6.502;2022-09-27T07:33:08;15.20;99.90
52555;DHT22;38455;52.710;6.502;2022-09-27T07:35:34;15.10;99.90
52555;DHT22;38455;52.710;6.502;2022-09-27T07:38:05;14.90;99.90
52555;DHT22;38455;52.710;6.502;2022-09-27T07:40:35;15.40;99.90
52555;DHT22;38455;52.710;6.502;2022-09-27T07:43:01;16.10;99.90
52555;DHT22;38455;52.710;6.502;2022-09-27T07:45:27;16.40;99.90
52555;DHT22;38455;52.710;6.502;2022-09-27T07:47:53;16.30;99.90
52555;DHT22;38455;52.710;6.502;2022-09-27T07:50:19;16.90;99.90
52555;DHT22;38455;52.710;6.502;2022-09-27T07:52:47;18.20;99.90
52555;DHT22;38455;52.710;6.502;2022-09-27T07:55:16;19.30;99.90
52555;DHT22;38455;52.710;6.502;2022-09-27T07:57:42;20.00;99.90
52555;DHT22;38455;52.710;6.502;2022-09-27T08:00:12;20.00;99.90
52555;DHT22;38455;52.710;6.502;2022-09-27T08:02:40;19.30;99.90
52555;DHT22;38455;52.710;6.502;2022-09-27T08:05:06;19.10;99.90
52555;DHT22;38455;52.710;6.502;2022-09-27T08:07:31;19.30;99.90
52555;DHT22;38455;52.710;6.502;2022-09-27T08:09:57;18.90;99.90
52555;DHT22;38455;52.710;6.502;2022-09-27T08:12:23;18.60;99.90
52555;DHT22;38455;52.710;6.502;2022-09-27T08:14:49;18.60;99.90
52555;DHT22;38455;52.710;6.502;2022-09-27T08:17:15;19.40;99.90
52555;DHT22;38455;52.710;6.502;2022-09-27T08:19:42;20.20;99.90
52555;DHT22;38455;52.710;6.502;2022-09-27T08:22:10;20.80;99.90
52555;DHT22;38455;52.710;6.502;2022-09-27T08:24:39;21.70;99.90
52555;DHT22;38455;52.710;6.502;2022-09-27T08:27:04;22.20;99.90
52555;DHT22;38455;52.710;6.502;2022-09-27T08:29:35;22.00;99.90
52555;DHT22;38455;52.710;6.502;2022-09-27T08:32:01;22.40;99.90
52555;DHT22;38455;52.710;6.502;2022-09-27T08:34:26;22.20;99.90
52555;DHT22;38455;52.710;6.502;2022-09-27T08:36:54;21.10;99.90
52555;DHT22;38455;52.710;6.502;2022-09-27T08:39:20;20.90;99.90
52555;DHT22;38455;52.710;6.502;2022-09-27T08:41:51;21.70;99.90
52555;DHT22;38455;52.710;6.502;2022-09-27T08:45:40;22.20;99.90
52555;DHT22;38455;52.710;6.502;2022-09-27T08:47:43;22.80;99.30
52555;DHT22;38455;52.710;6.502;2022-09-27T08:52:45;21.80;99.90
52555;DHT22;38455;52.710;6.502;2022-09-27T08:55:31;20.60;99.90
52555;DHT22;38455;52.710;6.502;2022-09-27T09:00:29;18.50;99.90
52555;DHT22;38455;52.710;6.502;2022-09-27T09:03:00;17.80;99.90
52555;DHT22;38455;52.710;6.502;2022-09-27T09:05:29;17.20;99.90
52555;DHT22;38455;52.710;6.502;2022-09-27T09:08:49;17.00;99.90
52555;DHT22;38455;52.710;6.502;2022-09-27T09:14:23;17.60;99.90
52555;DHT22;38455;52.710;6.502;2022-09-27T09:16:55;18.80;99.90
52555;DHT22;38455;52.710;6.502;2022-09-27T09:24:55;19.40;99.90
52555;DHT22;38455;52.710;6.502;2022-09-27T09:30:22;17.20;99.90
52555;DHT22;38455;52.710;6.502;2022-09-27T09:33:12;16.20;99.90
52555;DHT22;38455;52.710;6.502;2022-09-27T09:35:43;15.70;99.90
52555;DHT22;38455;52.710;6.502;2022-09-27T09:38:22;15.20;99.90
52555;DHT22;38455;52.710;6.502;2022-09-27T09:41:04;14.80;99.90
52555;DHT22;38455;52.710;6.502;2022-09-27T09:44:00;14.50;99.90
52555;DHT22;38455;52.710;6.502;2022-09-27T09:46:38;14.30;99.90
52555;DHT22;38455;52.710;6.502;2022-09-27T09:51:43;13.90;99.90
52555;DHT22;38455;52.710;6.502;2022-09-27T09:54:29;13.80;99.90
52555;DHT22;38455;52.710;6.502;2022-09-27T09:57:22;13.80;99.90
52555;DHT22;38455;52.710;6.502;2022-09-27T10:00:00;13.80;99.90
52555;DHT22;38455;52.710;6.502;2022-09-27T10:02:42;13.90;99.90
52555;DHT22;38455;52.710;6.502;2022-09-27T10:05:19;13.90;99.90
52555;DHT22;38455;52.710;6.502;2022-09-27T10:07:46;13.80;99.90
52555;DHT22;38455;52.710;6.502;2022-09-27T10:10:14;13.80;99.90
52555;DHT22;38455;52.710;6.502;2022-09-27T10:12:41;13.80;99.90
52555;DHT22;38455;52.710;6.502;2022-09-27T10:15:14;13.70;99.90
52555;DHT22;38455;52.710;6.502;2022-09-27T10:17:43;13.70;99.90
52555;DHT22;38455;52.710;6.502;2022-09-27T10:22:52;13.90;99.90
52555;DHT22;38455;52.710;6.502;2022-09-27T10:25:20;14.10;99.90
52555;DHT22;38455;52.710;6.502;2022-09-27T10:27:48;14.60;99.90
52555;DHT22;38455;52.710;6.502;2022-09-27T10:30:33;15.60;99.90
52555;DHT22;38455;52.710;6.502;2022-09-27T10:33:04;16.60;99.90
52555;DHT22;38455;52.710;6.502;2022-09-27T10:35:43;16.90;99.90
52555;DHT22;38455;52.710;6.502;2022-09-27T10:38:19;16.80;99.90
52555;DHT22;38455;52.710;6.502;2022-09-27T10:40:47;16.60;99.90
52555;DHT22;38455;52.710;6.502;2022-09-27T10:43:31;16.30;99.90
52555;DHT22;38455;52.710;6.502;2022-09-27T10:46:20;16.10;99.90
52555;DHT22;38455;52.710;6.502;2022-09-27T10:51:42;16.20;99.90
52555;DHT22;38455;52.710;6.502;2022-09-27T10:56:44;16.70;99.90
52555;DHT22;38455;52.710;6.502;2022-09-27T10:59:17;16.70;99.90
52555;DHT22;38455;52.710;6.502;2022-09-27T11:01:44;16.90;99.90
52555;DHT22;38455;52.710;6.502;2022-09-27T11:04:34;16.20;99.90
52555;DHT22;38455;52.710;6.502;2022-09-27T11:09:58;14.90;99.90
52555;DHT22;38455;52.710;6.502;2022-09-27T11:12:29;14.50;99.90
52555;DHT22;38455;52.710;6.502;2022-09-27T11:15:00;14.10;99.90
52555;DHT22;38455;52.710;6.502;2022-09-27T11:17:32;14.00;99.90
52555;DHT22;38455;52.710;6.502;2022-09-27T11:28:40;14.00;99.90
52555;DHT22;38455;52.710;6.502;2022-09-27T11:31:27;14.00;99.90
52555;DHT22;38455;52.710;6.502;2022-09-27T11:39:25;14.10;99.90
52555;DHT22;38455;52.710;6.502;2022-09-27T11:44:53;14.10;99.90
52555;DHT22;38455;52.710;6.502;2022-09-27T11:50:36;14.20;99.90
52555;DHT22;38455;52.710;6.502;2022-09-27T11:53:30;14.20;99.90
52555;DHT22;38455;52.710;6.502;2022-09-27T11:56:11;14.50;99.90
52555;DHT22;38455;52.710;6.502;2022-09-27T12:01:49;14.80;99.90
52555;DHT22;38455;52.710;6.502;2022-09-27T12:07:10;14.80;99.90
52555;DHT22;38455;52.710;6.502;2022-09-27T12:09:42;14.80;99.90
52555;DHT22;38455;52.710;6.502;2022-09-27T12:14:44;14.90;99.90
52555;DHT22;38455;52.710;6.502;2022-09-27T12:17:23;14.90;99.90
52555;DHT22;38455;52.710;6.502;2022-09-27T12:19:53;14.90;99.90
52555;DHT22;38455;52.710;6.502;2022-09-27T12:22:33;15.00;99.90
52555;DHT22;38455;52.710;6.502;2022-09-27T12:25:00;15.00;99.90
52555;DHT22;38455;52.710;6.502;2022-09-27T12:27:48;14.90;99.90
52555;DHT22;38455;52.710;6.502;2022-09-27T12:30:16;15.00;99.90
52555;DHT22;38455;52.710;6.502;2022-09-27T12:35:28;15.10;99.90
52555;DHT22;38455;52.710;6.502;2022-09-27T12:40:51;15.50;99.90
52555;DHT22;38455;52.710;6.502;2022-09-27T12:43:24;15.60;99.90
52555;DHT22;38455;52.710;6.502;2022-09-27T12:45:58;15.70;99.90
52555;DHT22;38455;52.710;6.502;2022-09-27T12:51:08;15.50;99.90
52555;DHT22;38455;52.710;6.502;2022-09-27T13:10:14;14.90;99.90
52555;DHT22;38455;52.710;6.502;2022-09-27T13:12:49;14.70;99.90
52555;DHT22;38455;52.710;6.502;2022-09-27T13:15:28;14.40;99.90
52555;DHT22;38455;52.710;6.502;2022-09-27T13:17:56;14.10;99.90
52555;DHT22;38455;52.710;6.502;2022-09-27T13:31:16;13.70;99.90
52555;DHT22;38455;52.710;6.502;2022-09-27T13:34:02;13.90;99.90
52555;DHT22;38455;52.710;6.502;2022-09-27T13:36:29;13.80;99.90
52555;DHT22;38455;52.710;6.502;2022-09-27T13:47:12;13.80;99.90
52555;DHT22;38455;52.710;6.502;2022-09-27T13:49:43;13.80;99.90
52555;DHT22;38455;52.710;6.502;2022-09-27T13:54:56;13.80;99.90
52555;DHT22;38455;52.710;6.502;2022-09-27T13:57:50;13.80;99.90
52555;DHT22;38455;52.710;6.502;2022-09-27T14:00:20;13.60;99.90
52555;DHT22;38455;52.710;6.502;2022-09-27T14:05:51;13.60;99.90
52555;DHT22;38455;52.710;6.502;2022-09-27T14:11:38;13.40;99.90
52555;DHT22;38455;52.710;6.502;2022-09-27T14:14:06;13.40;99.90
52555;DHT22;38455;52.710;6.502;2022-09-27T14:16:44;13.40;99.90
52555;DHT22;38455;52.710;6.502;2022-09-27T14:19:23;13.40;99.90
52555;DHT22;38455;52.710;6.502;2022-09-27T14:21:53;13.50;99.90
52555;DHT22;38455;52.710;6.502;2022-09-27T14:26:49;13.50;99.90
52555;DHT22;38455;52.710;6.502;2022-09-27T14:29:20;13.40;99.90
52555;DHT22;38455;52.710;6.502;2022-09-27T14:31:46;13.40;99.90
52555;DHT22;38455;52.710;6.502;2022-09-27T14:34:15;13.50;99.90
52555;DHT22;38455;52.710;6.502;2022-09-27T14:36:43;13.50;99.90
52555;DHT22;38455;52.710;6.502;2022-09-27T14:39:32;13.40;99.90
52555;DHT22;38455;52.710;6.502;2022-09-27T14:42:02;13.30;99.90
52555;DHT22;38455;52.710;6.502;2022-09-27T14:44:29;13.30;99.90
52555;DHT22;38455;52.710;6.502;2022-09-27T14:47:19;13.20;99.90
52555;DHT22;38455;52.710;6.502;2022-09-27T14:50:25;13.30;99.90
52555;DHT22;38455;52.710;6.502;2022-09-27T14:52:53;13.20;99.90
52555;DHT22;38455;52.710;6.502;2022-09-27T14:55:23;13.10;99.90
52555;DHT22;38455;52.710;6.502;2022-09-27T14:57:55;13.10;99.90
52555;DHT22;38455;52.710;6.502;2022-09-27T15:00:25;13.10;99.90
52555;DHT22;38455;52.710;6.502;2022-09-27T15:02:53;13.00;99.90
52555;DHT22;38455;52.710;6.502;2022-09-27T15:05:25;13.00;99.90
52555;DHT22;38455;52.710;6.502;2022-09-27T15:07:51;13.00;99.90
52555;DHT22;38455;52.710;6.502;2022-09-27T15:10:22;13.00;99.90
52555;DHT22;38455;52.710;6.502;2022-09-27T15:12:53;13.00;99.90
52555;DHT22;38455;52.710;6.502;2022-09-27T15:15:25;13.00;99.90
52555;DHT22;38455;52.710;6.502;2022-09-27T15:17:51;13.00;99.90
52555;DHT22;38455;52.710;6.502;2022-09-27T15:20:22;12.90;99.90
52555;DHT22;38455;52.710;6.502;2022-09-27T15:22:49;12.90;99.90
52555;DHT22;38455;52.710;6.502;2022-09-27T15:25:23;12.90;99.90
52555;DHT22;38455;52.710;6.502;2022-09-27T15:27:53;12.80;99.90
52555;DHT22;38455;52.710;6.502;2022-09-27T15:30:41;12.90;99.90
52555;DHT22;38455;52.710;6.502;2022-09-27T15:33:21;12.80;99.90
52555;DHT22;38455;52.710;6.502;2022-09-27T15:35:53;12.70;99.90
52555;DHT22;38455;52.710;6.502;2022-09-27T15:38:24;12.60;99.90
52555;DHT22;38455;52.710;6.502;2022-09-27T15:43:28;12.50;99.90
52555;DHT22;38455;52.710;6.502;2022-09-27T15:46:02;12.50;99.90
52555;DHT22;38455;52.710;6.502;2022-09-27T15:48:32;12.40;99.90
52555;DHT22;38455;52.710;6.502;2022-09-27T15:51:00;12.50;99.90
52555;DHT22;38455;52.710;6.502;2022-09-27T15:56:00;12.40;99.90
52555;DHT22;38455;52.710;6.502;2022-09-27T15:58:26;12.40;99.90
52555;DHT22;38455;52.710;6.502;2022-09-27T16:00:56;12.40;99.90
52555;DHT22;38455;52.710;6.502;2022-09-27T16:03:24;12.40;99.90
52555;DHT22;38455;52.710;6.502;2022-09-27T16:05:51;12.40;99.90
52555;DHT22;38455;52.710;6.502;2022-09-27T16:08:16;12.40;99.90
52555;DHT22;38455;52.710;6.502;2022-09-27T16:10:45;12.30;99.90
52555;DHT22;38455;52.710;6.502;2022-09-27T16:13:12;12.30;99.90
52555;DHT22;38455;52.710;6.502;2022-09-27T16:15:38;12.30;99.90
52555;DHT22;38455;52.710;6.502;2022-09-27T16:18:05;12.30;99.90
52555;DHT22;38455;52.710;6.502;2022-09-27T16:20:30;12.20;99.90
52555;DHT22;38455;52.710;6.502;2022-09-27T16:22:57;12.20;99.90
52555;DHT22;38455;52.710;6.502;2022-09-27T16:25:23;12.20;99.90
52555;DHT22;38455;52.710;6.502;2022-09-27T16:27:49;12.10;99.90
52555;DHT22;38455;52.710;6.502;2022-09-27T16:30:17;12.10;99.90
52555;DHT22;38455;52.710;6.502;2022-09-27T16:32:44;12.10;99.90
52555;DHT22;38455;52.710;6.502;2022-09-27T16:35:11;12.10;99.90
52555;DHT22;38455;52.710;6.502;2022-09-27T16:37:38;12.10;99.90
52555;DHT22;38455;52.710;6.502;2022-09-27T16:40:05;12.10;99.90
52555;DHT22;38455;52.710;6.502;2022-09-27T16:42:31;12.00;99.90
52555;DHT22;38455;52.710;6.502;2022-09-27T16:44:57;12.00;99.90
52555;DHT22;38455;52.710;6.502;2022-09-27T16:47:22;12.00;99.90
52555;DHT22;38455;52.710;6.502;2022-09-27T16:49:48;11.90;99.90
52555;DHT22;38455;52.710;6.502;2022-09-27T16:52:32;11.90;99.90
52555;DHT22;38455;52.710;6.502;2022-09-27T16:54:58;11.80;99.90
52555;DHT22;38455;52.710;6.502;2022-09-27T16:57:25;11.80;99.90
52555;DHT22;38455;52.710;6.502;2022-09-27T16:59:53;11.70;99.90
52555;DHT22;38455;52.710;6.502;2022-09-27T17:02:21;11.70;99.90
52555;DHT22;38455;52.710;6.502;2022-09-27T17:04:48;11.60;99.90
52555;DHT22;38455;52.710;6.502;2022-09-27T17:07:13;11.60;99.90
52555;DHT22;38455;52.710;6.502;2022-09-27T17:09:39;11.50;99.90
52555;DHT22;38455;52.710;6.502;2022-09-27T17:12:05;11.50;99.90
52555;DHT22;38455;52.710;6.502;2022-09-27T17:14:31;11.40;99.90
52555;DHT22;38455;52.710;6.502;2022-09-27T17:16:57;11.30;99.90
52555;DHT22;38455;52.710;6.502;2022-09-27T17:19:23;11.20;99.90
52555;DHT22;38455;52.710;6.502;2022-09-27T17:21:49;11.20;99.90
52555;DHT22;38455;52.710;6.502;2022-09-27T17:24:15;11.10;99.90
52555;DHT22;38455;52.710;6.502;2022-09-27T17:26:41;11.10;99.90
52555;DHT22;38455;52.710;6.502;2022-09-27T17:29:10;11.00;99.90
52555;DHT22;38455;52.710;6.502;2022-09-27T17:31:38;11.00;99.90
52555;DHT22;38455;52.710;6.502;2022-09-27T17:34:05;11.00;99.90
52555;DHT22;38455;52.710;6.502;2022-09-27T17:36:32;10.90;99.90
52555;DHT22;38455;52.710;6.502;2022-09-27T17:38:59;10.80;99.90
52555;DHT22;38455;52.710;6.502;2022-09-27T17:41:26;10.80;99.90
52555;DHT22;38455;52.710;6.502;2022-09-27T17:43:54;10.70;99.90
52555;DHT22;38455;52.710;6.502;2022-09-27T17:46:32;10.80;99.90
52555;DHT22;38455;52.710;6.502;2022-09-27T17:48:59;10.70;99.90
52555;DHT22;38455;52.710;6.502;2022-09-27T17:51:47;10.70;99.90
52555;DHT22;38455;52.710;6.502;2022-09-27T17:54:13;10.70;99.90
52555;DHT22;38455;52.710;6.502;2022-09-27T17:56:40;10.70;99.90
52555;DHT22;38455;52.710;6.502;2022-09-27T17:59:08;10.70;99.90
52555;DHT22;38455;52.710;6.502;2022-09-27T18:01:34;10.60;99.90
52555;DHT22;38455;52.710;6.502;2022-09-27T18:04:03;10.60;99.90
52555;DHT22;38455;52.710;6.502;2022-09-27T18:06:29;10.60;99.90
52555;DHT22;38455;52.710;6.502;2022-09-27T18:08:55;10.50;99.90
52555;DHT22;38455;52.710;6.502;2022-09-27T18:11:24;10.40;99.90
52555;DHT22;38455;52.710;6.502;2022-09-27T18:13:54;10.40;99.90
52555;DHT22;38455;52.710;6.502;2022-09-27T18:16:20;10.40;99.90
52555;DHT22;38455;52.710;6.502;2022-09-27T18:18:47;10.30;99.90
52555;DHT22;38455;52.710;6.502;2022-09-27T18:21:18;10.30;99.90
52555;DHT22;38455;52.710;6.502;2022-09-27T18:23:50;10.30;99.90
52555;DHT22;38455;52.710;6.502;2022-09-27T18:26:19;10.30;99.90
52555;DHT22;38455;52.710;6.502;2022-09-27T18:28:49;10.30;99.90
52555;DHT22;38455;52.710;6.502;2022-09-27T18:31:17;10.30;99.90
52555;DHT22;38455;52.710;6.502;2022-09-27T18:33:43;10.30;99.90